sensor_id;sensor_type;location;lat;lon;timestamp;P1;durP1;ratioP1;P2;durP2;ratioP2
75737;SDS011;64356;45.638;13.764;2023-05-23T00:00:32;14.02;;;7.97;;
75737;SDS011;64356;45.638;13.764;2023-05-23T00:02:58;9.60;;;7.00;;
75737;SDS011;64356;45.638;13.764;2023-05-23T00:05:24;14.10;;;7.57;;
75737;SDS011;64356;45.638;13.764;2023-05-23T00:07:51;12.20;;;6.95;;
75737;SDS011;64356;45.638;13.764;2023-05-23T00:10:16;12.90;;;6.82;;
75737;SDS011;64356;45.638;13.764;2023-05-23T00:12:42;13.38;;;7.53;;
75737;SDS011;64356;45.638;13.764;2023-05-23T00:15:08;12.00;;;7.03;;
75737;SDS011;64356;45.638;13.764;2023-05-23T00:17:34;17.00;;;7.03;;
75737;SDS011;64356;45.638;13.764;2023-05-23T00:20:02;14.75;;;7.53;;
75737;SDS011;64356;45.638;13.764;2023-05-23T00:22:28;13.20;;;7.40;;
75737;SDS011;64356;45.638;13.764;2023-05-23T00:24:54;11.98;;;7.68;;
75737;SDS011;64356;45.638;13.764;2023-05-23T00:27:22;16.48;;;7.55;;
75737;SDS011;64356;45.638;13.764;2023-05-23T00:29:48;10.00;;;6.40;;
75737;SDS011;64356;45.638;13.764;2023-05-23T00:32:13;12.65;;;7.60;;
75737;SDS011;64356;45.638;13.764;2023-05-23T00:34:39;9.27;;;7.15;;
75737;SDS011;64356;45.638;13.764;2023-05-23T00:37:05;9.73;;;7.15;;
75737;SDS011;64356;45.638;13.764;2023-05-23T00:39:31;11.65;;;7.10;;
75737;SDS011;64356;45.638;13.764;2023-05-23T00:41:56;10.85;;;6.47;;
75737;SDS011;64356;45.638;13.764;2023-05-23T00:44:22;12.02;;;7.30;;
75737;SDS011;64356;45.638;13.764;2023-05-23T00:46:49;9.75;;;7.07;;
75737;SDS011;64356;45.638;13.764;2023-05-23T00:49:19;11.77;;;6.65;;
75737;SDS011;64356;45.638;13.764;2023-05-23T00:51:45;9.38;;;7.07;;
75737;SDS011;64356;45.638;13.764;2023-05-23T00:54:11;12.75;;;6.97;;
75737;SDS011;64356;45.638;13.764;2023-05-23T00:56:37;9.43;;;6.68;;
75737;SDS011;64356;45.638;13.764;2023-05-23T00:59:04;8.07;;;7.00;;
75737;SDS011;64356;45.638;13.764;2023-05-23T01:01:30;14.43;;;6.47;;
75737;SDS011;64356;45.638;13.764;2023-05-23T01:03:57;7.88;;;6.63;;
75737;SDS011;64356;45.638;13.764;2023-05-23T01:06:23;8.23;;;6.60;;
75737;SDS011;64356;45.638;13.764;2023-05-23T01:08:49;8.20;;;6.60;;
75737;SDS011;64356;45.638;13.764;2023-05-23T01:11:27;9.48;;;6.53;;
75737;SDS011;64356;45.638;13.764;2023-05-23T01:14:12;7.00;;;6.07;;
75737;SDS011;64356;45.638;13.764;2023-05-23T01:20:06;11.82;;;7.30;;
75737;SDS011;64356;45.638;13.764;2023-05-23T01:22:26;8.18;;;6.28;;
75737;SDS011;64356;45.638;13.764;2023-05-23T01:25:02;6.93;;;5.53;;
75737;SDS011;64356;45.638;13.764;2023-05-23T01:27:52;8.98;;;6.72;;
75737;SDS011;64356;45.638;13.764;2023-05-23T01:30:24;7.75;;;6.20;;
75737;SDS011;64356;45.638;13.764;2023-05-23T01:32:54;9.00;;;5.53;;
75737;SDS011;64356;45.638;13.764;2023-05-23T01:35:25;10.48;;;7.25;;
75737;SDS011;64356;45.638;13.764;2023-05-23T01:37:54;9.30;;;6.07;;
75737;SDS011;64356;45.638;13.764;2023-05-23T01:40:21;8.80;;;6.22;;
75737;SDS011;64356;45.638;13.764;2023-05-23T01:42:51;11.60;;;6.93;;
75737;SDS011;64356;45.638;13.764;2023-05-23T01:45:19;10.77;;;6.70;;
75737;SDS011;64356;45.638;13.764;2023-05-23T01:47:45;12.10;;;6.80;;
75737;SDS011;64356;45.638;13.764;2023-05-23T01:50:13;8.05;;;5.82;;
75737;SDS011;64356;45.638;13.764;2023-05-23T01:52:40;13.10;;;7.00;;
75737;SDS011;64356;45.638;13.764;2023-05-23T01:55:06;8.07;;;6.40;;
75737;SDS011;64356;45.638;13.764;2023-05-23T01:57:34;8.50;;;6.22;;
75737;SDS011;64356;45.638;13.764;2023-05-23T02:00:04;7.80;;;6.20;;
75737;SDS011;64356;45.638;13.764;2023-05-23T02:02:31;10.15;;;5.82;;
75737;SDS011;64356;45.638;13.764;2023-05-23T02:04:58;8.77;;;6.13;;
75737;SDS011;64356;45.638;13.764;2023-05-23T02:07:24;9.98;;;6.18;;
75737;SDS011;64356;45.638;13.764;2023-05-23T02:09:50;9.75;;;6.13;;
75737;SDS011;64356;45.638;13.764;2023-05-23T02:12:16;9.43;;;6.70;;
75737;SDS011;64356;45.638;13.764;2023-05-23T02:14:41;9.70;;;6.57;;
75737;SDS011;64356;45.638;13.764;2023-05-23T02:17:07;8.32;;;6.18;;
75737;SDS011;64356;45.638;13.764;2023-05-23T02:19:36;6.25;;;5.57;;
75737;SDS011;64356;45.638;13.764;2023-05-23T02:22:02;11.55;;;6.53;;
75737;SDS011;64356;45.638;13.764;2023-05-23T02:24:28;8.27;;;6.25;;
75737;SDS011;64356;45.638;13.764;2023-05-23T02:26:54;8.65;;;6.35;;
75737;SDS011;64356;45.638;13.764;2023-05-23T02:29:19;10.00;;;6.40;;
75737;SDS011;64356;45.638;13.764;2023-05-23T02:31:45;7.28;;;6.15;;
75737;SDS011;64356;45.638;13.764;2023-05-23T02:34:11;8.85;;;6.28;;
75737;SDS011;64356;45.638;13.764;2023-05-23T02:36:37;6.75;;;6.05;;
75737;SDS011;64356;45.638;13.764;2023-05-23T02:39:03;11.55;;;5.68;;
75737;SDS011;64356;45.638;13.764;2023-05-23T02:41:29;6.55;;;5.82;;
75737;SDS011;64356;45.638;13.764;2023-05-23T02:43:55;10.63;;;5.97;;
75737;SDS011;64356;45.638;13.764;2023-05-23T02:46:21;7.55;;;6.43;;
75737;SDS011;64356;45.638;13.764;2023-05-23T02:48:47;7.38;;;5.78;;
75737;SDS011;64356;45.638;13.764;2023-05-23T02:51:13;10.13;;;5.97;;
75737;SDS011;64356;45.638;13.764;2023-05-23T02:53:38;8.20;;;5.82;;
75737;SDS011;64356;45.638;13.764;2023-05-23T02:56:05;10.65;;;7.10;;
75737;SDS011;64356;45.638;13.764;2023-05-23T02:58:32;10.02;;;6.57;;
75737;SDS011;64356;45.638;13.764;2023-05-23T03:01:02;7.45;;;6.25;;
75737;SDS011;64356;45.638;13.764;2023-05-23T03:03:28;11.63;;;6.50;;
75737;SDS011;64356;45.638;13.764;2023-05-23T03:05:56;8.88;;;6.32;;
75737;SDS011;64356;45.638;13.764;2023-05-23T03:08:22;6.70;;;5.90;;
75737;SDS011;64356;45.638;13.764;2023-05-23T03:10:48;7.18;;;5.82;;
75737;SDS011;64356;45.638;13.764;2023-05-23T03:13:13;8.20;;;5.30;;
75737;SDS011;64356;45.638;13.764;2023-05-23T03:15:40;11.05;;;6.15;;
75737;SDS011;64356;45.638;13.764;2023-05-23T03:18:05;14.93;;;6.35;;
75737;SDS011;64356;45.638;13.764;2023-05-23T03:20:31;8.48;;;5.82;;
75737;SDS011;64356;45.638;13.764;2023-05-23T03:22:57;9.18;;;6.13;;
75737;SDS011;64356;45.638;13.764;2023-05-23T03:25:22;8.65;;;5.75;;
75737;SDS011;64356;45.638;13.764;2023-05-23T03:27:48;12.55;;;6.32;;
75737;SDS011;64356;45.638;13.764;2023-05-23T03:30:14;7.70;;;6.22;;
75737;SDS011;64356;45.638;13.764;2023-05-23T03:32:40;9.52;;;5.60;;
75737;SDS011;64356;45.638;13.764;2023-05-23T03:35:06;11.85;;;6.20;;
75737;SDS011;64356;45.638;13.764;2023-05-23T03:37:32;7.95;;;5.30;;
75737;SDS011;64356;45.638;13.764;2023-05-23T03:39:58;7.45;;;6.38;;
75737;SDS011;64356;45.638;13.764;2023-05-23T03:42:23;9.23;;;6.40;;
75737;SDS011;64356;45.638;13.764;2023-05-23T03:44:49;7.32;;;5.50;;
75737;SDS011;64356;45.638;13.764;2023-05-23T03:47:15;10.13;;;5.93;;
75737;SDS011;64356;45.638;13.764;2023-05-23T03:49:40;6.93;;;6.13;;
75737;SDS011;64356;45.638;13.764;2023-05-23T03:52:06;7.00;;;5.90;;
75737;SDS011;64356;45.638;13.764;2023-05-23T03:54:31;7.70;;;5.75;;
75737;SDS011;64356;45.638;13.764;2023-05-23T03:56:57;7.90;;;5.65;;
75737;SDS011;64356;45.638;13.764;2023-05-23T03:59:23;8.88;;;5.75;;
75737;SDS011;64356;45.638;13.764;2023-05-23T04:01:49;8.82;;;5.63;;
75737;SDS011;64356;45.638;13.764;2023-05-23T04:04:14;8.45;;;6.38;;
75737;SDS011;64356;45.638;13.764;2023-05-23T04:06:41;7.15;;;5.88;;
75737;SDS011;64356;45.638;13.764;2023-05-23T04:09:07;7.75;;;5.53;;
75737;SDS011;64356;45.638;13.764;2023-05-23T04:11:33;7.75;;;5.68;;
75737;SDS011;64356;45.638;13.764;2023-05-23T04:13:58;7.57;;;5.97;;
75737;SDS011;64356;45.638;13.764;2023-05-23T04:16:26;9.07;;;5.65;;
75737;SDS011;64356;45.638;13.764;2023-05-23T04:18:51;7.63;;;5.72;;
75737;SDS011;64356;45.638;13.764;2023-05-23T04:21:18;7.43;;;5.22;;
75737;SDS011;64356;45.638;13.764;2023-05-23T04:23:44;8.23;;;5.90;;
75737;SDS011;64356;45.638;13.764;2023-05-23T04:26:10;6.57;;;5.47;;
75737;SDS011;64356;45.638;13.764;2023-05-23T04:28:37;8.98;;;6.00;;
75737;SDS011;64356;45.638;13.764;2023-05-23T04:31:03;7.45;;;6.03;;
75737;SDS011;64356;45.638;13.764;2023-05-23T04:33:29;12.30;;;5.85;;
75737;SDS011;64356;45.638;13.764;2023-05-23T04:35:55;6.72;;;5.60;;
75737;SDS011;64356;45.638;13.764;2023-05-23T04:38:21;10.18;;;5.80;;
75737;SDS011;64356;45.638;13.764;2023-05-23T04:40:50;7.45;;;5.60;;
75737;SDS011;64356;45.638;13.764;2023-05-23T04:43:18;8.75;;;5.68;;
75737;SDS011;64356;45.638;13.764;2023-05-23T04:45:44;6.95;;;5.45;;
75737;SDS011;64356;45.638;13.764;2023-05-23T04:48:13;10.38;;;5.85;;
75737;SDS011;64356;45.638;13.764;2023-05-23T04:50:41;7.78;;;5.55;;
75737;SDS011;64356;45.638;13.764;2023-05-23T04:53:07;9.38;;;6.03;;
75737;SDS011;64356;45.638;13.764;2023-05-23T04:55:33;7.68;;;5.47;;
75737;SDS011;64356;45.638;13.764;2023-05-23T04:57:59;8.75;;;5.43;;
75737;SDS011;64356;45.638;13.764;2023-05-23T05:00:25;6.78;;;5.65;;
75737;SDS011;64356;45.638;13.764;2023-05-23T05:02:50;7.50;;;5.78;;
75737;SDS011;64356;45.638;13.764;2023-05-23T05:05:16;7.53;;;5.72;;
75737;SDS011;64356;45.638;13.764;2023-05-23T05:07:42;8.07;;;5.15;;
75737;SDS011;64356;45.638;13.764;2023-05-23T05:10:08;7.35;;;6.07;;
75737;SDS011;64356;45.638;13.764;2023-05-23T05:12:41;6.50;;;5.80;;
75737;SDS011;64356;45.638;13.764;2023-05-23T05:15:14;11.23;;;5.90;;
75737;SDS011;64356;45.638;13.764;2023-05-23T05:17:44;6.60;;;5.38;;
75737;SDS011;64356;45.638;13.764;2023-05-23T05:20:10;6.40;;;5.32;;
75737;SDS011;64356;45.638;13.764;2023-05-23T05:22:36;9.85;;;5.50;;
75737;SDS011;64356;45.638;13.764;2023-05-23T05:25:05;6.85;;;5.43;;
75737;SDS011;64356;45.638;13.764;2023-05-23T05:27:31;11.32;;;6.20;;
75737;SDS011;64356;45.638;13.764;2023-05-23T05:29:58;7.03;;;5.30;;
75737;SDS011;64356;45.638;13.764;2023-05-23T05:32:29;8.85;;;5.60;;
75737;SDS011;64356;45.638;13.764;2023-05-23T05:35:00;9.10;;;5.57;;
75737;SDS011;64356;45.638;13.764;2023-05-23T05:37:27;11.88;;;5.57;;
75737;SDS011;64356;45.638;13.764;2023-05-23T05:39:53;12.77;;;5.43;;
75737;SDS011;64356;45.638;13.764;2023-05-23T05:42:22;13.07;;;5.93;;
75737;SDS011;64356;45.638;13.764;2023-05-23T05:44:48;15.93;;;6.13;;
75737;SDS011;64356;45.638;13.764;2023-05-23T05:47:14;11.18;;;6.28;;
75737;SDS011;64356;45.638;13.764;2023-05-23T05:49:40;12.98;;;5.65;;
75737;SDS011;64356;45.638;13.764;2023-05-23T05:52:06;28.80;;;6.45;;
75737;SDS011;64356;45.638;13.764;2023-05-23T05:54:32;23.63;;;6.47;;
75737;SDS011;64356;45.638;13.764;2023-05-23T05:56:58;44.58;;;8.23;;
75737;SDS011;64356;45.638;13.764;2023-05-23T05:59:24;46.72;;;8.00;;
75737;SDS011;64356;45.638;13.764;2023-05-23T06:01:50;34.30;;;7.20;;
75737;SDS011;64356;45.638;13.764;2023-05-23T06:04:16;20.63;;;6.15;;
75737;SDS011;64356;45.638;13.764;2023-05-23T06:06:42;23.15;;;6.13;;
75737;SDS011;64356;45.638;13.764;2023-05-23T06:09:08;13.45;;;6.03;;
75737;SDS011;64356;45.638;13.764;2023-05-23T06:11:34;13.95;;;6.75;;
75737;SDS011;64356;45.638;13.764;2023-05-23T06:14:03;16.15;;;6.57;;
75737;SDS011;64356;45.638;13.764;2023-05-23T06:16:29;12.25;;;6.75;;
75737;SDS011;64356;45.638;13.764;2023-05-23T06:18:55;14.65;;;6.35;;
75737;SDS011;64356;45.638;13.764;2023-05-23T06:21:20;26.20;;;6.10;;
75737;SDS011;64356;45.638;13.764;2023-05-23T06:23:46;15.18;;;5.82;;
75737;SDS011;64356;45.638;13.764;2023-05-23T06:26:12;16.40;;;7.13;;
75737;SDS011;64356;45.638;13.764;2023-05-23T06:28:37;7.97;;;5.82;;
75737;SDS011;64356;45.638;13.764;2023-05-23T06:31:04;11.50;;;5.70;;
75737;SDS011;64356;45.638;13.764;2023-05-23T06:33:30;14.27;;;6.15;;
75737;SDS011;64356;45.638;13.764;2023-05-23T06:35:56;10.73;;;5.80;;
75737;SDS011;64356;45.638;13.764;2023-05-23T06:38:22;17.48;;;5.97;;
75737;SDS011;64356;45.638;13.764;2023-05-23T06:40:47;9.57;;;5.20;;
75737;SDS011;64356;45.638;13.764;2023-05-23T06:43:13;12.30;;;5.60;;
75737;SDS011;64356;45.638;13.764;2023-05-23T06:45:39;33.63;;;5.90;;
75737;SDS011;64356;45.638;13.764;2023-05-23T06:48:04;14.07;;;5.55;;
75737;SDS011;64356;45.638;13.764;2023-05-23T06:50:30;15.05;;;5.43;;
75737;SDS011;64356;45.638;13.764;2023-05-23T06:52:56;15.57;;;5.70;;
75737;SDS011;64356;45.638;13.764;2023-05-23T06:55:22;10.20;;;5.35;;
75737;SDS011;64356;45.638;13.764;2023-05-23T06:57:48;8.43;;;5.30;;
75737;SDS011;64356;45.638;13.764;2023-05-23T07:00:16;15.45;;;5.22;;
75737;SDS011;64356;45.638;13.764;2023-05-23T07:02:42;8.25;;;5.60;;
75737;SDS011;64356;45.638;13.764;2023-05-23T07:05:09;7.25;;;5.15;;
75737;SDS011;64356;45.638;13.764;2023-05-23T07:07:35;14.88;;;5.72;;
75737;SDS011;64356;45.638;13.764;2023-05-23T07:10:01;30.45;;;6.60;;
75737;SDS011;64356;45.638;13.764;2023-05-23T07:12:27;16.92;;;6.47;;
75737;SDS011;64356;45.638;13.764;2023-05-23T07:14:52;14.90;;;6.00;;
75737;SDS011;64356;45.638;13.764;2023-05-23T07:17:18;14.25;;;6.38;;
75737;SDS011;64356;45.638;13.764;2023-05-23T07:19:44;10.68;;;6.22;;
75737;SDS011;64356;45.638;13.764;2023-05-23T07:22:10;17.42;;;7.78;;
75737;SDS011;64356;45.638;13.764;2023-05-23T07:24:36;15.10;;;5.78;;
75737;SDS011;64356;45.638;13.764;2023-05-23T07:27:02;14.55;;;5.75;;
75737;SDS011;64356;45.638;13.764;2023-05-23T07:29:28;16.98;;;6.35;;
75737;SDS011;64356;45.638;13.764;2023-05-23T07:31:53;10.48;;;6.00;;
75737;SDS011;64356;45.638;13.764;2023-05-23T07:34:19;14.07;;;5.57;;
75737;SDS011;64356;45.638;13.764;2023-05-23T07:36:45;18.83;;;6.00;;
75737;SDS011;64356;45.638;13.764;2023-05-23T07:39:11;16.50;;;6.10;;
75737;SDS011;64356;45.638;13.764;2023-05-23T07:41:37;12.77;;;5.43;;
75737;SDS011;64356;45.638;13.764;2023-05-23T07:44:02;10.60;;;5.43;;
75737;SDS011;64356;45.638;13.764;2023-05-23T07:46:28;15.75;;;6.07;;
75737;SDS011;64356;45.638;13.764;2023-05-23T07:48:54;11.65;;;5.32;;
75737;SDS011;64356;45.638;13.764;2023-05-23T07:51:20;15.40;;;6.32;;
75737;SDS011;64356;45.638;13.764;2023-05-23T07:53:46;8.38;;;5.40;;
75737;SDS011;64356;45.638;13.764;2023-05-23T07:56:12;10.02;;;5.32;;
75737;SDS011;64356;45.638;13.764;2023-05-23T07:58:38;13.85;;;5.75;;
75737;SDS011;64356;45.638;13.764;2023-05-23T08:01:03;12.15;;;5.78;;
75737;SDS011;64356;45.638;13.764;2023-05-23T08:03:29;28.40;;;7.10;;
75737;SDS011;64356;45.638;13.764;2023-05-23T08:05:55;18.50;;;6.40;;
75737;SDS011;64356;45.638;13.764;2023-05-23T08:08:21;15.48;;;6.70;;
75737;SDS011;64356;45.638;13.764;2023-05-23T08:10:46;10.40;;;6.10;;
75737;SDS011;64356;45.638;13.764;2023-05-23T08:13:12;8.25;;;6.15;;
75737;SDS011;64356;45.638;13.764;2023-05-23T08:15:38;14.02;;;5.85;;
75737;SDS011;64356;45.638;13.764;2023-05-23T08:18:03;18.02;;;7.32;;
75737;SDS011;64356;45.638;13.764;2023-05-23T08:20:29;21.75;;;6.47;;
75737;SDS011;64356;45.638;13.764;2023-05-23T08:22:59;35.83;;;6.30;;
75737;SDS011;64356;45.638;13.764;2023-05-23T08:25:26;9.25;;;6.13;;
75737;SDS011;64356;45.638;13.764;2023-05-23T08:27:56;8.85;;;5.68;;
75737;SDS011;64356;45.638;13.764;2023-05-23T08:30:23;12.13;;;5.85;;
75737;SDS011;64356;45.638;13.764;2023-05-23T08:32:50;11.57;;;6.18;;
75737;SDS011;64356;45.638;13.764;2023-05-23T08:35:17;13.27;;;5.85;;
75737;SDS011;64356;45.638;13.764;2023-05-23T08:37:43;10.70;;;5.70;;
75737;SDS011;64356;45.638;13.764;2023-05-23T08:40:21;11.38;;;5.80;;
75737;SDS011;64356;45.638;13.764;2023-05-23T08:42:47;12.35;;;5.45;;
75737;SDS011;64356;45.638;13.764;2023-05-23T08:45:14;22.13;;;7.15;;
75737;SDS011;64356;45.638;13.764;2023-05-23T08:47:43;16.17;;;5.82;;
75737;SDS011;64356;45.638;13.764;2023-05-23T08:50:13;21.70;;;6.22;;
75737;SDS011;64356;45.638;13.764;2023-05-23T08:52:53;11.00;;;5.65;;
75737;SDS011;64356;45.638;13.764;2023-05-23T08:55:23;21.33;;;6.35;;
75737;SDS011;64356;45.638;13.764;2023-05-23T08:57:53;15.18;;;6.22;;
75737;SDS011;64356;45.638;13.764;2023-05-23T09:00:20;15.23;;;6.60;;
75737;SDS011;64356;45.638;13.764;2023-05-23T09:02:47;22.05;;;6.30;;
75737;SDS011;64356;45.638;13.764;2023-05-23T09:05:13;33.90;;;7.28;;
75737;SDS011;64356;45.638;13.764;2023-05-23T09:07:39;16.23;;;6.75;;
75737;SDS011;64356;45.638;13.764;2023-05-23T09:10:06;33.20;;;6.65;;
75737;SDS011;64356;45.638;13.764;2023-05-23T09:12:34;15.30;;;5.80;;
75737;SDS011;64356;45.638;13.764;2023-05-23T09:15:06;25.00;;;7.38;;
75737;SDS011;64356;45.638;13.764;2023-05-23T09:17:33;16.20;;;5.78;;
75737;SDS011;64356;45.638;13.764;2023-05-23T09:20:00;14.57;;;6.25;;
75737;SDS011;64356;45.638;13.764;2023-05-23T09:22:47;11.05;;;5.40;;
75737;SDS011;64356;45.638;13.764;2023-05-23T09:25:13;17.80;;;5.95;;
75737;SDS011;64356;45.638;13.764;2023-05-23T09:27:39;14.45;;;5.68;;
75737;SDS011;64356;45.638;13.764;2023-05-23T09:30:06;11.55;;;5.90;;
75737;SDS011;64356;45.638;13.764;2023-05-23T09:32:33;11.45;;;5.43;;
75737;SDS011;64356;45.638;13.764;2023-05-23T09:34:59;13.23;;;5.60;;
75737;SDS011;64356;45.638;13.764;2023-05-23T09:37:30;26.50;;;6.07;;
75737;SDS011;64356;45.638;13.764;2023-05-23T09:40:06;13.18;;;5.63;;
75737;SDS011;64356;45.638;13.764;2023-05-23T09:42:34;9.88;;;6.07;;
75737;SDS011;64356;45.638;13.764;2023-05-23T09:45:00;14.82;;;5.68;;
75737;SDS011;64356;45.638;13.764;2023-05-23T09:47:27;6.82;;;5.30;;
75737;SDS011;64356;45.638;13.764;2023-05-23T09:49:53;14.65;;;5.88;;
75737;SDS011;64356;45.638;13.764;2023-05-23T09:52:19;17.65;;;6.90;;
75737;SDS011;64356;45.638;13.764;2023-05-23T09:54:45;21.98;;;6.55;;
75737;SDS011;64356;45.638;13.764;2023-05-23T09:57:11;17.55;;;6.22;;
75737;SDS011;64356;45.638;13.764;2023-05-23T09:59:39;15.57;;;6.80;;
75737;SDS011;64356;45.638;13.764;2023-05-23T10:02:06;10.63;;;5.97;;
75737;SDS011;64356;45.638;13.764;2023-05-23T10:04:40;10.48;;;5.13;;
75737;SDS011;64356;45.638;13.764;2023-05-23T10:09:43;12.57;;;5.03;;
75737;SDS011;64356;45.638;13.764;2023-05-23T10:14:56;7.47;;;5.53;;
75737;SDS011;64356;45.638;13.764;2023-05-23T10:20:27;12.82;;;5.22;;
75737;SDS011;64356;45.638;13.764;2023-05-23T10:23:01;17.63;;;6.88;;
75737;SDS011;64356;45.638;13.764;2023-05-23T10:25:29;11.90;;;5.47;;
75737;SDS011;64356;45.638;13.764;2023-05-23T10:27:55;12.55;;;5.88;;
75737;SDS011;64356;45.638;13.764;2023-05-23T10:30:26;13.65;;;5.90;;
75737;SDS011;64356;45.638;13.764;2023-05-23T10:32:55;25.42;;;6.30;;
75737;SDS011;64356;45.638;13.764;2023-05-23T10:44:05;17.42;;;5.85;;
75737;SDS011;64356;45.638;13.764;2023-05-23T10:46:57;11.02;;;5.68;;
75737;SDS011;64356;45.638;13.764;2023-05-23T10:49:40;10.10;;;6.20;;
75737;SDS011;64356;45.638;13.764;2023-05-23T10:52:16;10.05;;;5.47;;
75737;SDS011;64356;45.638;13.764;2023-05-23T10:54:45;28.42;;;6.53;;
75737;SDS011;64356;45.638;13.764;2023-05-23T10:59:43;31.50;;;6.60;;
75737;SDS011;64356;45.638;13.764;2023-05-23T11:02:14;20.65;;;6.53;;
75737;SDS011;64356;45.638;13.764;2023-05-23T11:05:17;15.55;;;5.90;;
75737;SDS011;64356;45.638;13.764;2023-05-23T11:07:41;11.05;;;5.50;;
75737;SDS011;64356;45.638;13.764;2023-05-23T11:10:10;8.50;;;5.03;;
75737;SDS011;64356;45.638;13.764;2023-05-23T11:12:41;9.98;;;5.72;;
75737;SDS011;64356;45.638;13.764;2023-05-23T11:15:18;8.93;;;5.07;;
75737;SDS011;64356;45.638;13.764;2023-05-23T11:17:54;11.10;;;4.93;;
75737;SDS011;64356;45.638;13.764;2023-05-23T11:20:22;9.52;;;5.50;;
75737;SDS011;64356;45.638;13.764;2023-05-23T11:25:47;8.75;;;5.72;;
75737;SDS011;64356;45.638;13.764;2023-05-23T11:28:14;12.32;;;5.28;;
75737;SDS011;64356;45.638;13.764;2023-05-23T11:30:41;7.28;;;5.47;;
75737;SDS011;64356;45.638;13.764;2023-05-23T11:33:07;10.02;;;5.15;;
75737;SDS011;64356;45.638;13.764;2023-05-23T11:35:49;12.27;;;5.32;;
75737;SDS011;64356;45.638;13.764;2023-05-23T11:38:16;9.00;;;4.97;;
75737;SDS011;64356;45.638;13.764;2023-05-23T11:40:45;12.82;;;5.47;;
75737;SDS011;64356;45.638;13.764;2023-05-23T11:43:13;9.07;;;5.53;;
75737;SDS011;64356;45.638;13.764;2023-05-23T11:45:40;10.05;;;5.45;;
75737;SDS011;64356;45.638;13.764;2023-05-23T11:48:10;13.38;;;5.43;;
75737;SDS011;64356;45.638;13.764;2023-05-23T11:50:52;24.98;;;6.07;;
75737;SDS011;64356;45.638;13.764;2023-05-23T11:53:21;48.17;;;6.72;;
75737;SDS011;64356;45.638;13.764;2023-05-23T11:55:50;24.98;;;6.72;;
75737;SDS011;64356;45.638;13.764;2023-05-23T11:58:18;17.58;;;5.68;;
75737;SDS011;64356;45.638;13.764;2023-05-23T12:00:50;18.67;;;5.90;;
75737;SDS011;64356;45.638;13.764;2023-05-23T12:03:15;18.45;;;6.75;;
75737;SDS011;64356;45.638;13.764;2023-05-23T12:05:42;17.52;;;7.00;;
75737;SDS011;64356;45.638;13.764;2023-05-23T12:08:11;17.45;;;7.00;;
75737;SDS011;64356;45.638;13.764;2023-05-23T12:10:47;18.10;;;6.80;;
75737;SDS011;64356;45.638;13.764;2023-05-23T12:13:23;32.58;;;8.13;;
75737;SDS011;64356;45.638;13.764;2023-05-23T12:15:56;21.02;;;6.20;;
75737;SDS011;64356;45.638;13.764;2023-05-23T12:18:29;23.73;;;6.97;;
75737;SDS011;64356;45.638;13.764;2023-05-23T12:23:31;18.20;;;7.35;;
75737;SDS011;64356;45.638;13.764;2023-05-23T12:25:58;16.60;;;6.93;;
75737;SDS011;64356;45.638;13.764;2023-05-23T12:28:37;14.88;;;6.88;;
75737;SDS011;64356;45.638;13.764;2023-05-23T12:33:43;14.50;;;6.55;;
75737;SDS011;64356;45.638;13.764;2023-05-23T12:36:13;19.77;;;6.93;;
75737;SDS011;64356;45.638;13.764;2023-05-23T12:38:40;9.05;;;6.65;;
75737;SDS011;64356;45.638;13.764;2023-05-23T12:41:10;10.20;;;6.38;;
75737;SDS011;64356;45.638;13.764;2023-05-23T12:43:40;12.32;;;6.18;;
75737;SDS011;64356;45.638;13.764;2023-05-23T12:46:13;8.88;;;6.25;;
75737;SDS011;64356;45.638;13.764;2023-05-23T12:48:39;17.90;;;6.55;;
75737;SDS011;64356;45.638;13.764;2023-05-23T12:51:05;21.80;;;7.07;;
75737;SDS011;64356;45.638;13.764;2023-05-23T12:53:30;13.05;;;7.40;;
75737;SDS011;64356;45.638;13.764;2023-05-23T12:55:56;22.40;;;8.52;;
75737;SDS011;64356;45.638;13.764;2023-05-23T12:58:22;17.38;;;7.82;;
75737;SDS011;64356;45.638;13.764;2023-05-23T13:00:50;17.25;;;7.90;;
75737;SDS011;64356;45.638;13.764;2023-05-23T13:03:15;18.67;;;8.05;;
75737;SDS011;64356;45.638;13.764;2023-05-23T13:05:42;14.38;;;9.07;;
75737;SDS011;64356;45.638;13.764;2023-05-23T13:08:07;10.75;;;8.27;;
75737;SDS011;64356;45.638;13.764;2023-05-23T13:10:33;12.95;;;8.10;;
75737;SDS011;64356;45.638;13.764;2023-05-23T13:12:59;11.02;;;7.82;;
75737;SDS011;64356;45.638;13.764;2023-05-23T13:15:24;18.15;;;8.57;;
75737;SDS011;64356;45.638;13.764;2023-05-23T13:17:50;19.45;;;7.65;;
75737;SDS011;64356;45.638;13.764;2023-05-23T13:20:16;22.45;;;7.38;;
75737;SDS011;64356;45.638;13.764;2023-05-23T13:22:42;27.95;;;7.68;;
75737;SDS011;64356;45.638;13.764;2023-05-23T13:25:08;22.00;;;7.65;;
75737;SDS011;64356;45.638;13.764;2023-05-23T13:27:34;23.50;;;8.50;;
75737;SDS011;64356;45.638;13.764;2023-05-23T13:29:59;23.52;;;9.23;;
75737;SDS011;64356;45.638;13.764;2023-05-23T13:32:25;23.98;;;10.20;;
75737;SDS011;64356;45.638;13.764;2023-05-23T13:34:51;19.70;;;9.27;;
75737;SDS011;64356;45.638;13.764;2023-05-23T13:37:17;24.90;;;9.10;;
75737;SDS011;64356;45.638;13.764;2023-05-23T13:39:43;16.65;;;10.25;;
75737;SDS011;64356;45.638;13.764;2023-05-23T13:42:09;15.73;;;9.25;;
75737;SDS011;64356;45.638;13.764;2023-05-23T13:44:35;21.23;;;8.57;;
75737;SDS011;64356;45.638;13.764;2023-05-23T13:47:10;15.77;;;8.52;;
75737;SDS011;64356;45.638;13.764;2023-05-23T13:49:37;10.60;;;7.85;;
75737;SDS011;64356;45.638;13.764;2023-05-23T13:52:03;15.25;;;8.80;;
75737;SDS011;64356;45.638;13.764;2023-05-23T13:54:29;8.98;;;7.38;;
75737;SDS011;64356;45.638;13.764;2023-05-23T13:56:54;13.95;;;7.88;;
75737;SDS011;64356;45.638;13.764;2023-05-23T13:59:20;16.90;;;6.57;;
75737;SDS011;64356;45.638;13.764;2023-05-23T14:01:46;14.38;;;6.32;;
75737;SDS011;64356;45.638;13.764;2023-05-23T14:04:12;16.20;;;7.28;;
75737;SDS011;64356;45.638;13.764;2023-05-23T14:06:38;18.00;;;7.80;;
75737;SDS011;64356;45.638;13.764;2023-05-23T14:09:03;16.73;;;6.70;;
75737;SDS011;64356;45.638;13.764;2023-05-23T14:11:30;15.15;;;6.50;;
75737;SDS011;64356;45.638;13.764;2023-05-23T14:13:55;14.52;;;6.43;;
75737;SDS011;64356;45.638;13.764;2023-05-23T14:16:21;9.23;;;6.35;;
75737;SDS011;64356;45.638;13.764;2023-05-23T14:18:47;9.98;;;5.95;;
75737;SDS011;64356;45.638;13.764;2023-05-23T14:21:13;13.15;;;6.50;;
75737;SDS011;64356;45.638;13.764;2023-05-23T14:23:38;11.93;;;6.40;;
75737;SDS011;64356;45.638;13.764;2023-05-23T14:26:04;20.38;;;6.60;;
75737;SDS011;64356;45.638;13.764;2023-05-23T14:28:30;10.82;;;5.93;;
75737;SDS011;64356;45.638;13.764;2023-05-23T14:30:56;17.70;;;6.70;;
75737;SDS011;64356;45.638;13.764;2023-05-23T14:33:23;10.80;;;6.22;;
75737;SDS011;64356;45.638;13.764;2023-05-23T14:35:49;13.40;;;6.10;;
75737;SDS011;64356;45.638;13.764;2023-05-23T14:38:15;10.80;;;6.72;;
75737;SDS011;64356;45.638;13.764;2023-05-23T14:40:42;11.60;;;6.75;;
75737;SDS011;64356;45.638;13.764;2023-05-23T14:43:07;8.82;;;6.50;;
75737;SDS011;64356;45.638;13.764;2023-05-23T14:45:34;11.70;;;6.50;;
75737;SDS011;64356;45.638;13.764;2023-05-23T14:48:00;19.27;;;6.78;;
75737;SDS011;64356;45.638;13.764;2023-05-23T14:50:26;17.45;;;6.68;;
75737;SDS011;64356;45.638;13.764;2023-05-23T14:52:52;11.20;;;6.85;;
75737;SDS011;64356;45.638;13.764;2023-05-23T14:55:18;23.08;;;8.00;;
75737;SDS011;64356;45.638;13.764;2023-05-23T14:57:44;17.02;;;8.10;;